Texas General Land Office
 Texas General Land Office
 George P. Bush, Commissioner

 Oil Spill Prevention
 & Response

Texas Automated Buoy System
Real Time Ocean Observations
Supporting Oil Spill Prevention and
Response since 1995
Geochemical and Environmental Research Group

NOAA - NDBC Buoy 42020 -- Texas Automated Buoy System

NBDC Buoy 42020
Corpus Christi, TX
Conditions at 02/21/2019 13:30 UTC (02/21/2019 07:30 CST)
26° 57.0000'N   96° 42.0000'W
50nm Southeast of Corpus Christi, TX
Anemometer height: 5m
Water Depth: 252 feet (77 meters)
Wind: 6.0 m/s (11.7 kts)
          From 30°T (NNE)
Wind Gust: 8.00 m/s (15.6 kts) Pressure: 1010.0 mb (29.83 inHg)
Air Temp: 18°C (65 °F) Dewpoint: -99°C (-146°F) Relative Humidity: 0%
Sea Surf Temp: 19 °C (66 °F) Wave Height: 0.0m (0.0 ft) Wave Period: 0
  


IMPORTANT: Notice to Mariners


   Date      Time    Speed     Dir   Gust    AtmPr   AirT   DewPt   WaterT  RelH  WvHt  WvPer
          |  (UTC) | (m/s) |  (°T) | (m/s) |  (mb) |  (°C) |  (°C) |  (°C) | (%) | (m) | (s) |
==========+========+=======+=======+=======+=======+=======+=======+=======+=====+=====+=====+
02/21/2019 00:00:00     8.0      30     9.0 1012.20    16.2    12.6    18.7    79 -99.0  -99
02/21/2019 00:10:00     7.0      30     9.0 1012.10    16.3    12.7    18.7    79 -99.0  -99
02/21/2019 00:20:00     7.0      40     9.0 1012.00    16.4    13.0    18.6    80 -99.0  -99
02/21/2019 00:30:00     8.0      40     9.0 1011.70    16.4    13.0    18.6    80 -99.0  -99
02/21/2019 00:40:00     8.0      30     9.0 1011.90    16.4    13.2    18.6    81   1.3  -99
02/21/2019 00:50:00     7.0      40     9.0 1012.10    16.4    13.3    18.6    81   1.3    8
02/21/2019 01:00:00     8.0      40    10.0 1011.90    16.6    13.2   -99.0    80 -99.0  -99
02/21/2019 01:10:00     7.0      40     9.0 1012.20    16.6    13.3    18.5    80 -99.0  -99
02/21/2019 01:20:00     8.0      40     9.0 1012.20    16.7    13.4    18.5    80 -99.0  -99
02/21/2019 01:30:00     8.0      40    10.0 1012.20    16.8    13.4    18.5    80 -99.0  -99
02/21/2019 01:40:00     8.0      40     9.0 1012.30    16.9    13.6    18.5    80 -99.0  -99
02/21/2019 01:50:00     7.0      50     9.0 1012.30    17.2    13.8    18.5    80   1.4    7
02/21/2019 02:00:00     8.0      40    10.0 1012.20    17.2    13.3    18.5    77 -99.0  -99
02/21/2019 02:10:00     8.0      50     9.0 1012.40    17.3    13.6    18.5    78 -99.0  -99
02/21/2019 02:20:00     7.0      50     9.0 1012.60    17.4    14.0    18.5    80 -99.0  -99
02/21/2019 02:30:00     7.0      50     9.0 1012.80    17.3    13.8    18.5    79 -99.0  -99
02/21/2019 02:40:00     7.0      40     9.0 1012.70    17.5    14.3    18.5    81 -99.0  -99
02/21/2019 02:50:00     7.0      50     9.0 1012.80    17.5    14.0    18.5    79   1.3    7
02/21/2019 03:00:00     7.0      50    10.0 1012.70    17.6    14.0    18.5    79 -99.0  -99
02/21/2019 03:10:00     7.0      60     9.0 1012.70    17.7    14.1    18.5    79 -99.0  -99
02/21/2019 03:20:00     7.0      50     8.0 1012.70    17.7    14.3    18.5    80 -99.0  -99
02/21/2019 03:30:00     7.0      50     9.0 1012.70    17.7    14.4    18.5    81 -99.0  -99
02/21/2019 03:40:00     7.0      60     9.0 1012.60    17.8    14.6    18.5    81 -99.0  -99
02/21/2019 03:50:00     7.0      60     9.0 1012.70    17.9    14.7   -99.0    81   1.3    7
02/21/2019 04:00:00     7.0      60     9.0 1012.80    18.0    14.9    18.5    82 -99.0  -99
02/21/2019 04:10:00     7.0      50     9.0 1012.90    18.1    15.0    18.5    82 -99.0  -99
02/21/2019 04:20:00     7.0      60     9.0 1012.90    18.1    15.1    18.5    82 -99.0  -99
02/21/2019 04:30:00     6.0      50     8.0 1012.90    18.2    15.3    18.5    83 -99.0  -99
02/21/2019 04:40:00     7.0      50     8.0 1012.90    18.2    15.1    18.5    82   1.3  -99
02/21/2019 04:50:00     7.0      50     8.0 1012.70    18.3    15.3    18.5    82   1.3    8
02/21/2019 05:00:00     7.0      60     9.0 1012.50    18.4    15.5    18.5    83 -99.0  -99
02/21/2019 05:10:00     7.0      50     9.0 1012.50    18.4    15.5    18.5    83 -99.0  -99
02/21/2019 05:20:00     7.0      50     9.0 1012.40    18.5    15.6    18.5    83 -99.0  -99
02/21/2019 05:30:00     7.0      50     9.0 1012.40    18.6    15.7    18.5    83 -99.0  -99
02/21/2019 05:40:00     7.0      50     9.0 1012.40    18.6    15.8    18.5    83   1.2  -99
02/21/2019 05:50:00     7.0      60     8.0 1012.40    18.7    16.2    18.5    85   1.2    6
02/21/2019 06:00:00     7.0      60     9.0 1012.40    18.6    16.3    18.5    86 -99.0  -99
02/21/2019 06:10:00     6.0      60     8.0 1012.40    18.6    16.7    18.5    88 -99.0  -99
02/21/2019 06:20:00     6.0      50     8.0 1012.40    18.6    17.0    18.5    90 -99.0  -99
02/21/2019 06:30:00     6.0      40     7.0 1012.40    18.5    17.0    18.5    90 -99.0  -99
02/21/2019 06:40:00     6.0      40     7.0 1012.40    18.6    17.2    18.5    91 -99.0  -99
02/21/2019 06:50:00     6.0      40     7.0 1012.40    18.6    17.3    18.5    92   1.2    8
02/21/2019 07:00:00     6.0      50     7.0 1012.30    18.6    17.4   -99.0    92 -99.0  -99
02/21/2019 07:10:00     6.0      60     8.0 1012.20    18.5    17.4    18.6    93 -99.0  -99
02/21/2019 07:20:00     6.0      60     7.0 1012.10    18.4    17.6    18.6    95 -99.0  -99
02/21/2019 07:30:00     6.0      60     7.0 1011.90    18.4    17.8    18.6    96 -99.0  -99
02/21/2019 07:40:00     6.0      60     7.0 1012.00    18.4    17.9    18.6    96   1.3  -99
02/21/2019 07:50:00     5.0      50     7.0 1012.00    18.3    17.9    18.6    97   1.3    7
02/21/2019 08:00:00     5.0      50     6.0 1012.00    18.3    18.1    18.6    98 -99.0  -99
02/21/2019 08:10:00     5.0      40     6.0 1012.10    18.1    18.1    18.6   100 -99.0  -99
02/21/2019 08:20:00     4.0      30     6.0 1012.10    18.0    18.0    18.6   100 -99.0  -99
02/21/2019 08:30:00     4.0      30     6.0 1011.90    17.9    17.9    18.6   100 -99.0  -99
02/21/2019 08:40:00     4.0      30     5.0 1011.60    17.8    17.8    18.6   100   1.2  -99
02/21/2019 08:50:00     5.0      40     6.0 1011.50    17.9    17.9    18.6   100   1.2    7
02/21/2019 09:00:00     5.0      30     6.0 1011.40    17.7    17.7    18.7   100 -99.0  -99
02/21/2019 09:10:00     5.0      30     6.0 1011.20    17.7    17.7    18.7   100 -99.0  -99
02/21/2019 09:20:00     4.0      20     5.0 1011.20    17.6    17.6    18.7   100 -99.0  -99
02/21/2019 09:30:00     4.0      20     5.0 1011.30    17.7   -99.0   -99.0     0 -99.0  -99
02/21/2019 09:40:00     5.0      20     6.0 1011.10    17.7   -99.0    18.7     0   1.3  -99
02/21/2019 09:50:00     4.0      20     5.0 1011.10    17.7   -99.0    18.7     0   1.3    7
02/21/2019 10:00:00     4.0      20     5.0 1011.00    17.8   -99.0    18.7     0 -99.0  -99
02/21/2019 10:10:00     5.0      10     6.0 1010.90    17.7   -99.0    18.7     0 -99.0  -99
02/21/2019 10:20:00     5.0      10     5.0 1010.80    17.8   -99.0    18.7     0 -99.0  -99
02/21/2019 10:30:00     5.0      20     5.0 1010.60    17.8   -99.0    18.7     0 -99.0  -99
02/21/2019 10:40:00     5.0      10     6.0 1010.60    17.8   -99.0    18.7     0   1.2  -99
02/21/2019 10:50:00     6.0      20     7.0 1010.40    17.8   -99.0    18.7     0   1.2    6
02/21/2019 11:00:00     5.0      10     7.0 1010.20    17.8   -99.0    18.7     0 -99.0  -99
02/21/2019 11:10:00     6.0      10     7.0 1010.30    17.8   -99.0    18.7     0 -99.0  -99
02/21/2019 11:20:00     6.0     360     7.0 1010.40    17.8   -99.0    18.7     0 -99.0  -99
02/21/2019 11:30:00     6.0      10     7.0 1010.40    17.7   -99.0    18.7     0 -99.0  -99
02/21/2019 11:40:00     6.0      10     7.0 1010.30    17.7   -99.0    18.7     0   1.3  -99
02/21/2019 11:50:00     6.0      10     7.0 1010.30    17.9   -99.0    18.7     0   1.3    7
02/21/2019 12:00:00     6.0      10     7.0 1010.30    18.0   -99.0    18.7     0 -99.0  -99
02/21/2019 12:10:00     6.0      10     7.0 1010.30    18.1   -99.0    18.7     0 -99.0  -99
02/21/2019 12:20:00     6.0      20     7.0 1010.20    18.1   -99.0    18.7     0 -99.0  -99
02/21/2019 12:30:00     6.0      20     7.0 1010.00    18.2   -99.0    18.7     0 -99.0  -99
02/21/2019 12:40:00     6.0      20     7.0 1010.00    18.2   -99.0    18.7     0   1.4  -99
02/21/2019 12:50:00     6.0      20     7.0 1010.00    18.3   -99.0    18.8     0   1.4    8
02/21/2019 13:00:00     6.0      20     7.0 1010.10    18.3   -99.0   -99.0     0 -99.0  -99
02/21/2019 13:10:00     6.0      30     7.0 1010.00    18.4   -99.0    18.8     0 -99.0  -99
02/21/2019 13:20:00     6.0      30     8.0 1009.90    18.4   -99.0    18.9     0 -99.0  -99
02/21/2019 13:30:00     6.0      30     8.0 1010.00    18.4   -99.0    18.9     0 -99.0  -99